EBFS

Florennes Air Base Airport

Florennes, Belgium
METAR EBFS 191655Z AUTO 10006KT 9999 BKN200/// M01/M05 Q1011 BLU
Observed Flight Rules
Jan-19 @ 16:55 UTC (19 minutes ago) Visual Flight Rules
Wind Visibility Clouds
100° at 6 knots 10,000+ meters
  • Broken at 20,000' AGL
Temperatures Readings
Current -1°C / 30°F
Dewpoint -5°C / 23°F
Humidity 75%
Altimeter 29.85" Hg
Pressure 1010.92 hPa
Elevation 299
METAR EBFS 191655Z AUTO 10006KT 9999 BKN200/// M01/M05 Q1011 BLU
Observed Flight Rules
Jan-19 @ 16:55 UTC
(19 minutes ago)
VFR
Wind Visibility
100° at 6 knots 10,000+ meters
Clouds
  • Broken at 20,000' AGL
Temperature Dewpoint
-1°C / 30°F -5°C / 23°F
Humidity Altimeter Pressure
75% 29.85" Hg 1010.92 hPa